Time;durP1;ratioP1;P1;durP2;ratioP2;P2;SDS_P1;SDS_P2;PMS_P1;PMS_P2;Temp;Humidity;BMP_temperature;BMP_pressure;BME280_temperature;BME280_humidity;BME280_pressure;Samples;Min_cycle;Max_cycle;Signal;HPM_P1;HPM_P2
2023/10/16 00:00:37;;;;;;;7.20;2.00;;;;;;;14.87;57.91;99414.41;108012;1254;60851;-66
2023/10/16 00:03:06;;;;;;;4.40;2.10;;;;;;;14.58;58.49;99421.28;107935;1254;60314;-65
2023/10/16 00:05:38;;;;;;;6.10;2.30;;;;;;;14.55;58.75;99427.27;108041;1254;73815;-66
2023/10/16 00:08:06;;;;;;;6.10;2.40;;;;;;;14.69;58.26;99433.64;108043;1254;70055;-65
2023/10/16 00:10:35;;;;;;;6.80;2.60;;;;;;;14.54;58.62;99433.14;107964;1253;72714;-66
2023/10/16 00:13:10;;;;;;;6.80;2.10;;;;;;;14.56;58.75;99434.27;107931;1255;60848;-66
2023/10/16 00:15:44;;;;;;;6.20;2.00;;;;;;;14.67;58.25;99438.73;107921;1254;60401;-66
2023/10/16 00:18:18;;;;;;;8.00;2.30;;;;;;;14.73;58.12;99440.44;107933;1254;73828;-66
2023/10/16 00:20:45;;;;;;;6.60;2.10;;;;;;;14.73;58.18;99436.94;108005;1254;69237;-66
2023/10/16 00:23:14;;;;;;;4.80;2.30;;;;;;;14.59;58.38;99434.98;107991;1254;72704;-64
2023/10/16 00:25:42;;;;;;;6.10;2.40;;;;;;;14.64;58.28;99435.73;108086;1253;60421;-66
2023/10/16 00:28:11;;;;;;;8.20;2.20;;;;;;;14.75;58.06;99439.23;108021;1254;60307;-66
2023/10/16 00:30:38;;;;;;;8.10;2.30;;;;;;;14.81;57.76;99434.27;107996;1254;73886;-66
2023/10/16 00:33:08;;;;;;;10.40;2.20;;;;;;;14.79;57.79;99430.66;108029;1254;70098;-67
2023/10/16 00:35:39;;;;;;;8.10;2.40;;;;;;;14.87;57.59;99430.86;108064;1254;72410;-65
2023/10/16 00:38:13;;;;;;;4.50;2.20;;;;;;;14.83;57.75;99427.40;107983;1254;60931;-64
2023/10/16 00:40:44;;;;;;;7.10;2.30;;;;;;;14.75;57.92;99425.48;107848;1254;60529;-65
2023/10/16 00:43:12;;;;;;;5.40;2.10;;;;;;;14.71;57.99;99422.20;108114;1256;73907;-65
2023/10/16 00:45:46;;;;;;;6.20;2.10;;;;;;;14.63;58.10;99421.66;108059;1253;70398;-66
2023/10/16 00:48:17;;;;;;;7.80;2.10;;;;;;;14.65;58.17;99419.39;107975;1253;73145;-64
2023/10/16 00:50:48;;;;;;;4.90;1.90;;;;;;;14.64;58.07;99417.33;108058;1257;59568;-66
2023/10/16 00:53:16;;;;;;;9.80;2.60;;;;;;;14.70;57.94;99417.48;107929;1259;60317;-64
2023/10/16 00:55:44;;;;;;;5.70;2.30;;;;;;;14.57;58.21;99416.56;108077;1253;73788;-65
2023/10/16 00:58:11;;;;;;;4.90;2.30;;;;;;;14.47;58.40;99414.16;107951;1253;70089;-65
2023/10/16 01:00:45;;;;;;;5.30;2.20;;;;;;;14.55;58.21;99408.21;108037;1254;72725;-65
2023/10/16 01:03:13;;;;;;;6.90;2.20;;;;;;;14.68;57.73;99405.80;108167;1253;61069;-66
2023/10/16 01:05:43;;;;;;;7.60;2.30;;;;;;;14.49;57.97;99406.80;108145;1253;60412;-65
2023/10/16 01:08:11;;;;;;;3.20;1.80;;;;;;;14.43;57.77;99406.10;107808;1253;72780;-67
2023/10/16 01:10:43;;;;;;;5.50;2.10;;;;;;;14.40;57.76;99408.28;108040;1253;70575;-65
2023/10/16 01:13:12;;;;;;;6.00;1.90;;;;;;;14.32;57.80;99407.38;108036;1254;72680;-65
2023/10/16 01:15:50;;;;;;;4.50;1.90;;;;;;;14.41;57.71;99409.10;108104;1253;60360;-66
2023/10/16 01:18:18;;;;;;;6.00;2.00;;;;;;;14.34;57.74;99405.66;107982;1255;60410;-64
2023/10/16 01:20:48;;;;;;;5.30;2.00;;;;;;;14.35;57.66;99403.78;107909;1253;74059;-66
2023/10/16 01:23:20;;;;;;;6.90;2.20;;;;;;;14.38;57.43;99403.08;107935;1260;69478;-65
2023/10/16 01:25:48;;;;;;;5.40;2.60;;;;;;;14.16;57.81;99397.95;108056;1254;71587;-65
2023/10/16 01:28:16;;;;;;;7.00;1.60;;;;;;;13.91;58.24;99401.66;108157;1253;60509;-65
2023/10/16 01:30:49;;;;;;;3.40;1.80;;;;;;;13.89;57.96;99401.42;108067;1253;60257;-66
2023/10/16 01:33:19;;;;;;;4.80;1.90;;;;;;;13.69;58.35;99399.13;108065;1253;73014;-65
2023/10/16 01:35:46;;;;;;;4.50;1.60;;;;;;;13.89;57.81;99397.38;108005;1253;70349;-65
2023/10/16 01:38:17;;;;;;;3.90;1.70;;;;;;;13.95;57.56;99398.25;108015;1253;72715;-66
2023/10/16 01:41:02;;;;;;;;;;;;;;;13.80;57.80;99395.28;108037;1253;60298;-67
2023/10/16 01:43:30;;;;;;;4.40;1.90;;;;;;;13.73;57.93;99393.41;107970;1253;60304;-65
2023/10/16 01:46:00;;;;;;;4.10;1.80;;;;;;;13.69;57.93;99397.86;107944;1253;72670;-65
2023/10/16 01:48:28;;;;;;;4.90;1.90;;;;;;;13.66;58.08;99393.14;108010;1253;69943;-65
2023/10/16 01:50:56;;;;;;;4.30;2.00;;;;;;;13.68;57.90;99396.41;108005;1253;75537;-66
2023/10/16 01:53:32;;;;;;;4.70;2.00;;;;;;;13.73;57.85;99395.02;107854;1256;60557;-65
2023/10/16 01:56:12;;;;;;;5.60;2.10;;;;;;;13.70;57.92;99395.52;108005;1253;60388;-65
2023/10/16 01:58:41;;;;;;;6.20;2.30;;;;;;;13.76;57.86;99394.65;107892;1253;73834;-61
2023/10/16 02:01:16;;;;;;;5.80;1.90;;;;;;;13.59;58.17;99390.39;107904;1253;70227;-65
2023/10/16 02:03:44;;;;;;;7.90;1.80;;;;;;;13.43;58.13;99393.27;107885;1253;72689;-65
2023/10/16 02:06:12;;;;;;;6.20;2.00;;;;;;;13.45;58.13;99395.66;108055;1258;61828;-66
2023/10/16 02:08:40;;;;;;;4.30;1.80;;;;;;;13.66;57.59;99395.45;108017;1253;60346;-65
2023/10/16 02:11:09;;;;;;;3.30;1.60;;;;;;;13.70;57.50;99384.64;108056;1253;72636;-65
2023/10/16 02:13:40;;;;;;;5.50;1.70;;;;;;;13.62;57.38;99377.89;107886;1259;70462;-64
2023/10/16 02:16:12;;;;;;;4.90;1.70;;;;;;;13.34;57.98;99370.02;107884;1260;72689;-65
2023/10/16 02:18:40;;;;;;;5.70;1.40;;;;;;;13.37;57.77;99363.16;108035;1253;59587;-64
2023/10/16 02:21:11;;;;;;;3.70;1.60;;;;;;;13.49;57.39;99361.35;107983;1253;60451;-64
2023/10/16 02:23:41;;;;;;;4.50;1.70;;;;;;;13.49;57.08;99356.77;107991;1253;73717;-66
2023/10/16 02:26:09;;;;;;;7.30;1.60;;;;;;;13.27;57.30;99354.21;108094;1253;68787;-65
2023/10/16 02:28:40;;;;;;;3.90;1.80;;;;;;;13.13;57.63;99348.54;107982;1253;71362;-65
2023/10/16 02:31:16;;;;;;;3.70;1.60;;;;;;;13.01;57.90;99347.45;107974;1253;61582;-66
2023/10/16 02:33:50;;;;;;;3.60;1.60;;;;;;;13.07;57.82;99349.61;107955;1253;59166;-65
2023/10/16 02:36:18;;;;;;;4.40;1.60;;;;;;;13.16;57.66;99346.21;108001;1253;73823;-65
2023/10/16 02:38:47;;;;;;;4.00;1.80;;;;;;;13.34;57.36;99354.39;108017;1253;69450;-66
2023/10/16 02:41:16;;;;;;;5.30;1.70;;;;;;;13.27;57.45;99354.92;108046;1254;72489;-66
2023/10/16 02:43:45;;;;;;;5.30;1.70;;;;;;;13.35;57.35;99349.52;108082;1253;60941;-65
2023/10/16 02:46:13;;;;;;;3.50;2.10;;;;;;;13.20;57.57;99348.85;108029;1253;60544;-65
2023/10/16 02:48:43;;;;;;;6.10;2.10;;;;;;;13.23;57.79;99350.23;108000;1253;72634;-66
2023/10/16 02:51:11;;;;;;;4.00;1.70;;;;;;;13.23;57.85;99346.13;108064;1253;70520;-65
2023/10/16 02:55:32;;;;;;;3.60;1.70;;;;;;;11.49;62.93;99352.95;104896;1291;601103;-65
2023/10/16 02:58:04;;;;;;;3.80;1.50;;;;;;;12.35;60.54;99349.04;107683;1258;59743;-65
2023/10/16 03:00:37;;;;;;;4.30;1.60;;;;;;;12.55;59.96;99344.33;107736;1262;59193;-66
2023/10/16 03:03:07;;;;;;;4.90;1.80;;;;;;;12.51;59.90;99350.04;107631;1258;71086;-66
2023/10/16 03:05:34;;;;;;;4.50;2.10;;;;;;;12.54;60.03;99346.16;107671;1260;70145;-65
2023/10/16 03:08:02;;;;;;;5.80;1.80;;;;;;;12.58;59.82;99348.75;107470;1260;179972;-65
2023/10/16 03:10:30;;;;;;;5.60;2.00;;;;;;;12.45;60.38;99348.64;107847;1261;60951;-66
2023/10/16 03:13:05;;;;;;;3.70;1.70;;;;;;;12.34;60.87;99351.14;107785;1257;59123;-65
2023/10/16 03:15:38;;;;;;;6.20;2.00;;;;;;;12.30;61.10;99352.30;108073;1252;72196;-65
2023/10/16 03:18:15;;;;;;;2.80;1.80;;;;;;;12.30;61.19;99348.42;108143;1253;70551;-65
2023/10/16 03:20:45;;;;;;;5.30;1.80;;;;;;;12.17;61.66;99357.95;108134;1253;73031;-65
2023/10/16 03:23:13;;;;;;;6.30;1.80;;;;;;;12.23;61.50;99350.38;108115;1253;61406;-65
2023/10/16 03:28:09;;;;;;;5.30;2.00;;;;;;;12.14;61.77;99347.55;108079;1254;71807;-66
2023/10/16 03:30:37;;;;;;;5.30;2.00;;;;;;;12.16;61.82;99346.92;108050;1254;72567;-66
2023/10/16 03:33:07;;;;;;;8.20;2.00;;;;;;;12.11;61.93;99349.34;108212;1254;75014;-66
2023/10/16 03:35:47;;;;;;;2.80;1.90;;;;;;;12.16;61.73;99350.61;108141;1253;59739;-66
2023/10/16 03:38:24;;;;;;;3.60;1.80;;;;;;;12.20;61.76;99345.63;108065;1253;60055;-66
2023/10/16 03:40:55;;;;;;;3.90;2.00;;;;;;;12.26;61.58;99343.70;108114;1255;74165;-66
2023/10/16 03:43:22;;;;;;;4.10;1.70;;;;;;;12.22;61.75;99348.53;108083;1254;70336;-66
2023/10/16 03:45:53;;;;;;;7.00;1.90;;;;;;;12.22;61.82;99353.09;108006;1254;72779;-66
2023/10/16 03:48:21;;;;;;;4.60;2.00;;;;;;;12.26;61.83;99359.40;108150;1254;59877;-64
2023/10/16 03:50:49;;;;;;;6.70;2.20;;;;;;;12.25;61.74;99361.73;108179;1252;59597;-67
2023/10/16 03:53:16;;;;;;;6.50;2.20;;;;;;;12.19;61.84;99362.22;107971;1254;73400;-67
2023/10/16 03:55:44;;;;;;;4.50;2.10;;;;;;;12.12;62.11;99362.83;108167;1254;70861;-65
2023/10/16 03:58:12;;;;;;;6.20;2.40;;;;;;;12.17;62.11;99360.92;108196;1257;72701;-65
2023/10/16 04:01:07;;;;;;;6.60;2.10;;;;;;;12.23;62.16;99363.21;108088;1254;61448;-66
2023/10/16 04:03:27;;;;;;;5.90;2.80;;;;;;;12.21;62.31;99366.86;108120;1254;59762;-65
2023/10/16 04:05:54;;;;;;;7.90;3.90;;;;;;;12.29;62.29;99359.75;108079;1254;70931;-65
2023/10/16 04:08:22;;;;;;;4.60;2.70;;;;;;;12.22;62.53;99358.94;108135;1253;69162;-66
2023/10/16 04:10:49;;;;;;;6.60;2.60;;;;;;;12.20;62.69;99357.07;107997;1254;70472;-66
2023/10/16 04:13:18;;;;;;;5.20;2.40;;;;;;;12.25;62.76;99351.20;108037;1253;60902;-65
2023/10/16 04:21:10;;;;;;;7.20;2.30;;;;;;;12.06;63.40;99344.14;108074;1254;70699;-65
2023/10/16 04:31:44;;;;;;;36.80;9.30;;;;;;;11.95;63.57;99345.08;108039;1259;73079;-66
2023/10/16 04:34:34;;;;;;;25.60;6.70;;;;;;;11.91;63.90;99346.87;108069;1254;70269;-66
2023/10/16 04:50:29;;;;;;;11.90;4.40;;;;;;;12.11;63.36;99356.38;108122;1253;72745;-66
2023/10/16 04:53:14;;;;;;;8.10;3.10;;;;;;;12.12;63.43;99354.88;108171;1256;60874;-66
2023/10/16 04:55:53;;;;;;;6.70;3.60;;;;;;;12.11;63.40;99353.15;108113;1253;60082;-65
2023/10/16 05:11:33;;;;;;;6.70;3.20;;;;;;;12.20;63.45;99347.08;108136;1258;73054;-66
2023/10/16 05:16:47;;;;;;;8.20;3.80;;;;;;;12.23;63.32;99338.23;108076;1254;71796;-66
2023/10/16 05:19:17;;;;;;;6.60;3.20;;;;;;;12.25;63.31;99339.89;108048;1253;60865;-66
2023/10/16 06:14:24;;;;;;;10.90;4.90;;;;;;;12.94;62.92;99352.63;108185;1254;60898;-65
2023/10/16 06:16:54;;;;;;;9.80;4.30;;;;;;;12.91;63.05;99358.13;108127;1253;59431;-66
2023/10/16 06:19:25;;;;;;;11.80;5.60;;;;;;;12.93;63.23;99358.15;108193;1253;72823;-66
2023/10/16 06:21:55;;;;;;;12.20;5.10;;;;;;;12.99;63.15;99356.58;108179;1254;68665;-66
2023/10/16 06:24:33;;;;;;;14.30;5.20;;;;;;;13.03;63.13;99350.03;108065;1254;72427;-67
2023/10/16 06:27:08;;;;;;;14.70;4.70;;;;;;;13.11;63.05;99345.66;108157;1254;61014;-66
2023/10/16 06:29:41;;;;;;;13.50;4.80;;;;;;;13.13;63.17;99343.92;108038;1253;59431;-65
2023/10/16 06:32:18;;;;;;;9.90;4.10;;;;;;;13.26;62.80;99358.71;108092;1253;73078;-65
2023/10/16 06:35:01;;;;;;;12.20;4.80;;;;;;;13.29;62.51;99364.70;108072;1254;72337;-66
2023/10/16 06:37:31;;;;;;;18.30;5.30;;;;;;;13.03;63.19;99364.63;108069;1260;72744;-66
2023/10/16 06:40:01;;;;;;;12.20;4.60;;;;;;;13.14;63.05;99369.63;108107;1260;60135;-67
2023/10/16 06:42:29;;;;;;;12.70;4.30;;;;;;;13.21;62.56;99377.48;108145;1254;61233;-66
2023/10/16 06:45:07;;;;;;;11.30;5.10;;;;;;;13.07;63.02;99382.90;108161;1255;71972;-67
2023/10/16 06:47:35;;;;;;;9.80;4.30;;;;;;;13.19;62.74;99391.20;108126;1254;69652;-67
2023/10/16 06:52:51;;;;;;;12.50;4.90;;;;;;;13.23;62.08;99392.52;108137;1254;61041;-66
2023/10/16 06:55:19;;;;;;;10.50;5.10;;;;;;;13.29;61.74;99395.19;108013;1254;59397;-65
2023/10/16 06:57:46;;;;;;;13.10;4.90;;;;;;;13.35;61.76;99389.18;108066;1254;73123;-66
2023/10/16 07:00:27;;;;;;;11.30;5.20;;;;;;;13.41;61.67;99386.52;108052;1257;70143;-66
2023/10/16 07:02:56;;;;;;;11.20;4.70;;;;;;;13.41;61.30;99383.16;108037;1254;71206;-66
2023/10/16 07:05:24;;;;;;;15.40;5.30;;;;;;;13.46;60.97;99380.63;108222;1254;59654;-66
2023/10/16 07:07:53;;;;;;;11.70;5.30;;;;;;;13.49;60.78;99377.20;108078;1252;59587;-67
2023/10/16 07:10:20;;;;;;;13.90;5.80;;;;;;;13.41;60.99;99377.69;108015;1254;73567;-66
2023/10/16 07:13:02;;;;;;;14.20;5.30;;;;;;;13.47;61.05;99378.61;108078;1254;70481;-66
2023/10/16 07:15:30;;;;;;;17.10;6.10;;;;;;;13.32;61.42;99377.42;108168;1254;70711;-66
2023/10/16 07:18:07;;;;;;;15.60;5.80;;;;;;;13.41;61.32;99377.20;108127;1254;61382;-66
2023/10/16 07:20:52;;;;;;;9.10;5.50;;;;;;;13.42;61.42;99373.98;108071;1255;60399;-66
2023/10/16 07:23:20;;;;;;;15.90;6.10;;;;;;;13.56;61.20;99369.21;108155;1253;73995;-68
2023/10/16 07:25:50;;;;;;;15.20;5.70;;;;;;;13.70;60.85;99367.68;108161;1254;70255;-66
2023/10/16 07:28:18;;;;;;;9.90;5.50;;;;;;;13.67;61.06;99368.04;108003;1258;71136;-66
2023/10/16 07:30:45;;;;;;;12.80;5.10;;;;;;;13.75;61.24;99375.14;108096;1254;60484;-67
2023/10/16 07:33:16;;;;;;;14.80;5.70;;;;;;;13.90;61.20;99370.63;108014;1252;60370;-67
2023/10/16 07:35:47;;;;;;;13.10;5.20;;;;;;;14.18;60.36;99371.73;108138;1254;73905;-65
2023/10/16 07:38:21;;;;;;;12.10;5.00;;;;;;;14.39;59.01;99374.77;108116;1254;70946;-67
2023/10/16 07:40:52;;;;;;;13.70;5.70;;;;;;;14.53;58.66;99368.40;108160;1254;72537;-67
2023/10/16 07:43:26;;;;;;;11.00;5.10;;;;;;;14.35;58.34;99371.64;108084;1254;62214;-66
2023/10/16 07:46:16;;;;;;;13.50;5.10;;;;;;;14.41;58.23;99375.50;108160;1254;59029;-67
2023/10/16 07:48:46;;;;;;;14.90;5.70;;;;;;;14.39;58.17;99373.33;108147;1254;74307;-68
2023/10/16 07:51:18;;;;;;;12.70;5.10;;;;;;;14.44;58.02;99375.16;108160;1254;70457;-66
2023/10/16 07:53:48;;;;;;;9.40;5.80;;;;;;;14.31;58.43;99376.89;108083;1254;73696;-66
2023/10/16 08:03:05;;;;;;;13.50;5.20;;;;;;;14.76;57.84;99377.84;108087;1254;73848;-66
2023/10/16 08:05:33;;;;;;;11.30;4.10;;;;;;;14.91;57.75;99372.98;108165;1254;69753;-66
2023/10/16 08:08:01;;;;;;;11.80;4.60;;;;;;;14.94;57.65;99374.89;108095;1254;74941;-68
2023/10/16 08:10:44;;;;;;;12.00;4.90;;;;;;;15.01;57.10;99374.75;108151;1254;60322;-67
2023/10/16 08:13:11;;;;;;;13.40;5.00;;;;;;;14.76;57.43;99376.10;108107;1258;60314;-66
2023/10/16 08:15:55;;;;;;;14.60;5.40;;;;;;;14.75;57.01;99374.91;108150;1254;73886;-67
2023/10/16 08:18:28;;;;;;;11.80;5.00;;;;;;;14.71;56.86;99371.66;108090;1254;70741;-66
2023/10/16 08:21:06;;;;;;;12.80;4.90;;;;;;;14.68;56.78;99368.31;108074;1254;71611;-67
2023/10/16 08:23:38;;;;;;;13.10;4.80;;;;;;;14.77;56.36;99368.42;108085;1254;60369;-66
2023/10/16 08:26:14;;;;;;;14.20;5.30;;;;;;;15.05;56.58;99371.86;108105;1252;60262;-67
2023/10/16 08:28:45;;;;;;;15.00;5.00;;;;;;;15.67;57.04;99376.98;108100;1254;74009;-67
2023/10/16 08:31:25;;;;;;;7.80;3.70;;;;;;;16.15;55.95;99379.48;108066;1253;69299;-66
2023/10/16 08:33:57;;;;;;;14.70;4.40;;;;;;;16.67;52.90;99387.38;108148;1253;72381;-66
2023/10/16 08:36:26;;;;;;;7.20;3.50;;;;;;;17.11;52.18;99382.84;108162;1254;60378;-66
2023/10/16 08:38:54;;;;;;;9.90;3.60;;;;;;;17.45;50.73;99375.10;108064;1254;60242;-66
2023/10/16 08:41:29;;;;;;;11.00;3.80;;;;;;;17.77;49.69;99373.66;108070;1252;72664;-66
2023/10/16 08:44:03;;;;;;;10.10;3.50;;;;;;;18.11;47.76;99368.83;108079;1252;72626;-67
2023/10/16 08:46:31;;;;;;;11.30;3.80;;;;;;;18.02;47.10;99372.09;107895;1254;74856;-66
2023/10/16 08:49:01;;;;;;;9.90;3.50;;;;;;;18.11;46.37;99371.86;108018;1255;61701;-66
2023/10/16 08:51:29;;;;;;;11.80;4.10;;;;;;;18.34;46.01;99376.04;108038;1254;59956;-66
2023/10/16 08:54:05;;;;;;;8.20;3.10;;;;;;;18.65;45.56;99371.42;107992;1253;73826;-67
2023/10/16 08:56:32;;;;;;;10.80;3.50;;;;;;;19.10;45.05;99376.61;108014;1254;69749;-66
2023/10/16 08:59:01;;;;;;;10.70;3.50;;;;;;;19.68;44.57;99372.30;108055;1254;71489;-66
2023/10/16 09:01:29;;;;;;;9.60;3.20;;;;;;;20.34;42.21;99365.95;108174;1253;61688;-66
2023/10/16 09:04:01;;;;;;;7.20;3.00;;;;;;;21.13;40.69;99369.68;107980;1252;60444;-66
2023/10/16 09:06:34;;;;;;;8.40;3.10;;;;;;;21.61;36.95;99366.98;108127;1254;73339;-67
2023/10/16 09:09:03;;;;;;;8.70;3.80;;;;;;;22.20;37.24;99370.85;108100;1253;72834;-67
2023/10/16 09:11:39;;;;;;;10.90;3.40;;;;;;;22.47;35.77;99363.34;108038;1257;72537;-67
2023/10/16 09:14:09;;;;;;;7.10;2.70;;;;;;;22.94;35.30;99357.60;108087;1254;60402;-67
2023/10/16 09:16:43;;;;;;;6.00;2.10;;;;;;;23.57;34.45;99353.91;108093;1254;60431;-67
2023/10/16 09:19:13;;;;;;;6.20;2.50;;;;;;;24.08;33.63;99353.60;108050;1254;75969;-67
2023/10/16 09:21:44;;;;;;;8.50;2.30;;;;;;;24.53;31.63;99351.16;108051;1254;69938;-67
2023/10/16 09:24:12;;;;;;;7.40;2.30;;;;;;;25.15;31.03;99348.35;108079;1254;72871;-68
2023/10/16 09:26:44;;;;;;;8.50;2.60;;;;;;;25.76;29.75;99343.77;108061;1254;60332;-67
2023/10/16 09:29:15;;;;;;;10.10;3.40;;;;;;;25.86;28.93;99342.63;108045;1252;60386;-67
2023/10/16 09:31:46;;;;;;;10.10;2.80;;;;;;;26.00;29.26;99345.48;108026;1254;73967;-67
2023/10/16 09:34:17;;;;;;;5.50;2.20;;;;;;;26.04;27.25;99340.88;108052;1254;69026;-67
2023/10/16 09:37:14;;;;;;;9.70;2.70;;;;;;;25.63;27.57;99343.91;108159;1256;71547;-66
2023/10/16 09:39:40;;;;;;;6.80;2.20;;;;;;;25.40;28.08;99347.63;108084;1259;60395;-67
2023/10/16 09:42:11;;;;;;;;;;;;;;;25.20;27.90;99348.70;108084;1254;60488;-67
2023/10/16 09:44:56;;;;;;;6.80;2.40;;;;;;;25.04;27.98;99342.69;108160;1254;73813;-66
2023/10/16 09:47:27;;;;;;;10.40;2.30;;;;;;;24.59;28.03;99340.98;108199;1254;69442;-66
2023/10/16 09:49:58;;;;;;;6.00;2.10;;;;;;;24.33;28.42;99340.55;108152;1254;72849;-68
2023/10/16 09:52:32;;;;;;;6.80;2.40;;;;;;;23.95;28.68;99345.65;108102;1253;60051;-67
2023/10/16 09:55:00;;;;;;;6.70;2.50;;;;;;;23.44;28.92;99343.05;108064;1258;60295;-67
2023/10/16 09:57:30;;;;;;;10.70;2.30;;;;;;;22.88;29.01;99341.35;108087;1253;71980;-67
2023/10/16 10:00:23;;;;;;;8.70;2.10;;;;;;;22.27;29.75;99348.11;108092;1253;72465;-66
2023/10/16 10:02:52;;;;;;;6.10;2.10;;;;;;;21.52;29.86;99354.25;108074;1253;71395;-65
2023/10/16 10:05:31;;;;;;;5.80;2.20;;;;;;;20.96;30.64;99354.29;107911;1257;61010;-68
2023/10/16 10:08:00;;;;;;;10.80;2.00;;;;;;;19.93;32.58;99360.35;108076;1255;59146;-68
2023/10/16 10:13:08;;;;;;;7.40;2.30;;;;;;;19.53;33.14;99358.14;108087;1254;70484;-67
2023/10/16 10:15:44;;;;;;;6.70;2.50;;;;;;;19.23;33.77;99356.61;108069;1254;72673;-67
2023/10/16 10:18:32;;;;;;;10.70;2.20;;;;;;;19.32;33.64;99358.88;108114;1258;60193;-67
2023/10/16 10:21:02;;;;;;;10.40;2.40;;;;;;;19.65;33.46;99357.16;108104;1253;59003;-66
2023/10/16 10:23:32;;;;;;;9.40;2.30;;;;;;;19.91;33.80;99352.33;108149;1257;73975;-67
2023/10/16 10:26:07;;;;;;;10.60;2.80;;;;;;;19.93;32.66;99348.85;108114;1253;70739;-66
2023/10/16 10:28:40;;;;;;;8.70;2.70;;;;;;;19.66;33.29;99354.52;108139;1253;70465;-67
2023/10/16 10:31:10;;;;;;;7.90;2.40;;;;;;;19.58;33.50;99353.23;108041;1254;60611;-67
2023/10/16 10:33:42;;;;;;;7.30;2.10;;;;;;;19.44;32.87;99352.70;108077;1257;60965;-67
2023/10/16 10:36:30;;;;;;;6.60;2.00;;;;;;;19.17;33.63;99359.63;108095;1254;73037;-67
2023/10/16 10:39:25;;;;;;;7.90;2.70;;;;;;;18.70;33.82;99357.67;108178;1254;70242;-67
2023/10/16 10:41:58;;;;;;;7.90;2.60;;;;;;;18.36;33.52;99362.63;108187;1254;73275;-66
2023/10/16 10:44:32;;;;;;;7.20;2.20;;;;;;;18.38;34.02;99363.67;108187;1254;60273;-67
2023/10/16 10:47:04;;;;;;;8.20;2.60;;;;;;;18.39;34.32;99360.73;108157;1254;60404;-67
2023/10/16 10:49:35;;;;;;;9.90;2.40;;;;;;;18.55;34.24;99357.48;108146;1254;72664;-68
2023/10/16 10:52:07;;;;;;;14.30;2.70;;;;;;;19.00;34.27;99354.47;108192;1253;70500;-66
2023/10/16 10:54:35;;;;;;;5.70;2.20;;;;;;;19.48;32.98;99356.44;108114;1254;71364;-67
2023/10/16 10:57:07;;;;;;;7.20;2.20;;;;;;;19.74;32.73;99359.91;108108;1254;60459;-67
2023/10/16 10:59:41;;;;;;;6.90;2.40;;;;;;;19.72;32.22;99362.96;107992;1254;60427;-67
2023/10/16 11:02:22;;;;;;;7.90;2.50;;;;;;;19.55;31.86;99355.27;108078;1253;72625;-67
2023/10/16 11:04:53;;;;;;;5.60;2.20;;;;;;;19.68;31.95;99359.31;108085;1254;69654;-67
2023/10/16 11:07:25;;;;;;;4.50;1.70;;;;;;;19.80;31.52;99362.20;108060;1254;71436;-67
2023/10/16 11:09:53;;;;;;;6.80;2.00;;;;;;;19.69;31.51;99360.33;108059;1254;61204;-67
2023/10/16 11:12:24;;;;;;;6.70;2.10;;;;;;;19.53;32.16;99361.50;108058;1253;60266;-67
2023/10/16 11:14:56;;;;;;;7.30;2.60;;;;;;;19.27;32.45;99364.30;108028;1253;74237;-67
2023/10/16 11:17:33;;;;;;;5.20;2.30;;;;;;;19.22;32.81;99359.55;108127;1253;69619;-67
2023/10/16 11:20:49;;;;;;;6.40;2.60;;;;;;;18.96;33.65;99361.93;108105;1253;72473;-67
2023/10/16 11:22:54;;;;;;;10.10;2.60;;;;;;;18.85;33.33;99365.89;108116;1252;60280;-67
2023/10/16 11:25:21;;;;;;;9.10;3.70;;;;;;;18.62;33.64;99366.70;108123;1254;60406;-67
2023/10/16 11:27:53;;;;;;;10.90;3.30;;;;;;;18.26;34.37;99366.27;107996;1254;74392;-66
2023/10/16 11:30:23;;;;;;;8.10;3.00;;;;;;;17.91;34.84;99374.89;107950;1256;70290;-67
2023/10/16 11:32:51;;;;;;;10.80;2.90;;;;;;;17.81;35.35;99377.25;108104;1254;71365;-66
2023/10/16 11:35:19;;;;;;;8.30;3.00;;;;;;;17.75;35.36;99379.14;107873;1254;62430;-66
2023/10/16 11:37:52;;;;;;;9.80;2.40;;;;;;;17.58;35.31;99377.64;108041;1254;60658;-66
2023/10/16 11:40:39;;;;;;;8.30;2.40;;;;;;;17.34;36.33;99383.74;108093;1257;74411;-66
2023/10/16 11:43:13;;;;;;;9.40;3.40;;;;;;;17.19;36.56;99385.42;108033;1254;68971;-66
2023/10/16 11:45:45;;;;;;;6.70;2.50;;;;;;;16.97;36.66;99385.52;107913;1254;73640;-67
2023/10/16 11:48:49;;;;;;;11.60;2.60;;;;;;;16.86;37.25;99383.51;108104;1254;60310;-67
2023/10/16 11:51:09;;;;;;;9.10;2.50;;;;;;;16.93;37.39;99387.04;107951;1253;60139;-68
2023/10/16 11:53:37;;;;;;;9.20;2.60;;;;;;;16.87;37.13;99389.98;107977;1257;74087;-67
2023/10/16 11:56:05;;;;;;;8.50;2.40;;;;;;;16.88;37.57;99390.41;108065;1259;69335;-66
2023/10/16 11:58:32;;;;;;;6.40;2.40;;;;;;;16.88;37.19;99397.17;108134;1252;72765;-67
2023/10/16 12:01:09;;;;;;;16.90;2.60;;;;;;;16.94;37.43;99398.50;108118;1254;60399;-67
2023/10/16 12:03:56;;;;;;;7.10;2.80;;;;;;;16.99;37.94;99398.10;108121;1254;60506;-67
2023/10/16 12:06:24;;;;;;;9.60;2.60;;;;;;;16.92;37.69;99395.79;108140;1252;72672;-67
2023/10/16 12:08:51;;;;;;;6.90;2.20;;;;;;;16.90;37.67;99397.92;108079;1253;69386;-66
2023/10/16 12:11:19;;;;;;;5.30;1.90;;;;;;;16.86;37.98;99397.48;108011;1256;73113;-68
2023/10/16 12:13:47;;;;;;;10.10;2.60;;;;;;;16.71;38.05;99398.20;108027;1257;60488;-65
2023/10/16 12:16:16;;;;;;;9.60;2.80;;;;;;;16.77;38.44;99403.80;108134;1253;60274;-67
2023/10/16 12:19:01;;;;;;;7.80;2.90;;;;;;;16.58;38.82;99404.66;108118;1254;74599;-66
2023/10/16 12:21:28;;;;;;;8.20;2.40;;;;;;;16.57;38.69;99412.19;108083;1254;70410;-67
2023/10/16 12:23:57;;;;;;;7.40;2.90;;;;;;;16.44;39.40;99415.44;108082;1254;71648;-66
2023/10/16 12:26:25;;;;;;;8.20;2.00;;;;;;;16.51;38.80;99416.13;108045;1254;60409;-66
2023/10/16 12:28:53;;;;;;;4.90;2.10;;;;;;;16.41;39.01;99419.70;108080;1254;62264;-67
2023/10/16 12:31:20;;;;;;;6.30;2.20;;;;;;;16.50;39.01;99421.00;108100;1258;74146;-71
2023/10/16 12:33:48;;;;;;;6.20;2.30;;;;;;;16.50;38.86;99426.32;108175;1253;70648;-66
2023/10/16 12:36:15;;;;;;;8.70;2.40;;;;;;;16.62;39.13;99430.97;108075;1253;70655;-67
2023/10/16 12:38:44;;;;;;;7.50;2.20;;;;;;;16.51;39.08;99436.52;108114;1254;60296;-67
2023/10/16 13:04:28;;;;;;;6.20;2.60;;;;;;;15.80;41.17;99467.98;105420;1283;613525;-66
2023/10/16 13:06:56;;;;;;;6.50;2.50;;;;;;;15.84;41.18;99469.64;107314;1264;59290;-65
2023/10/16 13:09:22;;;;;;;6.20;2.40;;;;;;;15.82;41.19;99469.59;107347;1264;60051;-66
2023/10/16 13:11:49;;;;;;;8.80;2.60;;;;;;;15.82;41.28;99469.55;107690;1257;71329;-66
2023/10/16 13:14:17;;;;;;;4.20;2.30;;;;;;;15.92;40.95;99475.09;107709;1257;69289;-66
2023/10/16 13:16:53;;;;;;;8.30;2.70;;;;;;;15.93;41.51;99476.11;108032;1253;167484;-66
2023/10/16 13:19:20;;;;;;;8.90;3.10;;;;;;;16.05;41.25;99480.02;108161;1250;61939;-67
2023/10/16 13:21:51;;;;;;;9.80;3.30;;;;;;;16.11;41.26;99480.84;108157;1251;59216;-67
2023/10/16 13:24:23;;;;;;;7.60;2.80;;;;;;;16.06;41.74;99480.48;108175;1251;72047;-66
2023/10/16 13:26:52;;;;;;;6.40;2.50;;;;;;;15.84;42.01;99481.70;108158;1251;68318;-67
2023/10/16 13:29:19;;;;;;;6.90;3.60;;;;;;;15.74;42.30;99479.34;108165;1251;71955;-66
2023/10/16 13:31:46;;;;;;;15.70;3.60;;;;;;;15.65;42.41;99479.92;108241;1251;62177;-67
2023/10/16 13:34:13;;;;;;;10.10;2.80;;;;;;;15.37;42.77;99488.54;108185;1250;59477;-67
2023/10/16 13:37:00;;;;;;;7.60;2.70;;;;;;;15.14;43.59;99498.04;108202;1250;72003;-67
2023/10/16 13:39:31;;;;;;;6.30;3.20;;;;;;;15.05;43.99;99500.77;108226;1251;70203;-67
2023/10/16 13:41:58;;;;;;;6.70;2.70;;;;;;;14.79;43.89;99502.73;108240;1251;71297;-66
2023/10/16 13:44:25;;;;;;;7.20;2.80;;;;;;;14.88;43.80;99505.35;108249;1251;62458;-67
2023/10/16 13:46:53;;;;;;;8.30;3.10;;;;;;;14.88;43.74;99512.77;108271;1251;60516;-66
2023/10/16 13:49:21;;;;;;;6.00;2.70;;;;;;;14.87;43.73;99513.89;108281;1251;73540;-66
2023/10/16 13:51:48;;;;;;;4.00;2.50;;;;;;;14.86;44.05;99518.21;108278;1251;70696;-66
2023/10/16 13:54:14;;;;;;;4.90;2.50;;;;;;;14.82;44.03;99519.70;108245;1254;73065;-66
2023/10/16 13:56:41;;;;;;;6.10;2.40;;;;;;;14.83;44.29;99521.56;108319;1251;61278;-67
2023/10/16 13:59:08;;;;;;;9.50;2.90;;;;;;;14.85;44.11;99526.54;108301;1254;59512;-66